createdAt,value
2023-05-20T00:00:54.821Z,65.38
2023-05-20T00:03:21.877Z,65.16
2023-05-20T00:05:49.068Z,65.45
2023-05-20T00:08:15.932Z,65.92
2023-05-20T00:10:43.948Z,65.85
2023-05-20T00:13:11.056Z,65.78
2023-05-20T00:15:38.028Z,66.11
2023-05-20T00:18:04.935Z,66.00
2023-05-20T00:20:32.631Z,66.66
2023-05-20T00:23:00.592Z,66.30
2023-05-20T00:25:28.415Z,65.93
2023-05-20T00:27:55.419Z,66.25
2023-05-20T00:30:22.474Z,66.40
2023-05-20T00:32:49.591Z,66.47
2023-05-20T00:35:16.578Z,66.23
2023-05-20T00:37:44.530Z,66.40
2023-05-20T00:40:13.088Z,66.31
2023-05-20T00:42:45.128Z,66.90
2023-05-20T00:45:13.075Z,66.62
2023-05-20T00:47:41.149Z,67.09
2023-05-20T00:50:10.391Z,66.67
2023-05-20T00:52:39.527Z,66.62
2023-05-20T00:55:07.497Z,66.49
2023-05-20T00:57:34.436Z,66.67
2023-05-20T01:00:01.606Z,66.55
2023-05-20T01:02:28.902Z,66.34
2023-05-20T01:04:56.940Z,66.62
2023-05-20T01:07:23.969Z,66.60
2023-05-20T01:09:52.562Z,66.65
2023-05-20T01:12:40.473Z,66.85
2023-05-20T01:15:11.349Z,67.07
2023-05-20T01:17:47.079Z,66.73
2023-05-20T01:20:15.318Z,66.72
2023-05-20T01:22:49.461Z,66.97
2023-05-20T01:25:20.144Z,67.08
2023-05-20T01:27:49.392Z,67.18
2023-05-20T01:30:16.447Z,67.02
2023-05-20T01:32:49.755Z,66.92
2023-05-20T01:35:18.110Z,66.77
2023-05-20T01:37:44.978Z,67.17
2023-05-20T01:40:15.204Z,67.01
2023-05-20T01:42:46.753Z,66.88
2023-05-20T01:45:17.058Z,66.78
2023-05-20T01:47:46.015Z,66.95
2023-05-20T01:50:12.997Z,66.57
2023-05-20T01:52:40.315Z,66.77
2023-05-20T01:55:07.497Z,66.62
2023-05-20T01:57:34.406Z,66.53
2023-05-20T02:00:01.386Z,66.82
2023-05-20T02:02:28.870Z,66.51
2023-05-20T02:04:55.912Z,66.09
2023-05-20T02:07:24.937Z,65.81
2023-05-20T02:09:54.503Z,65.88
2023-05-20T02:12:21.470Z,65.19
2023-05-20T02:14:48.457Z,65.25
2023-05-20T02:17:18.127Z,64.88
2023-05-20T02:19:46.940Z,65.02
2023-05-20T02:22:14.513Z,64.84
2023-05-20T02:24:43.815Z,64.81
2023-05-20T02:27:10.924Z,64.71
2023-05-20T02:29:37.898Z,64.63
2023-05-20T02:32:07.120Z,64.26
2023-05-20T02:34:34.092Z,64.56
2023-05-20T02:37:02.263Z,63.93
2023-05-20T02:39:31.625Z,63.80
2023-05-20T02:41:59.654Z,63.50
2023-05-20T02:44:26.581Z,63.15
2023-05-20T02:46:55.017Z,63.09
2023-05-20T02:49:24.380Z,63.13
2023-05-20T02:51:52.296Z,63.06
2023-05-20T02:54:19.411Z,63.10
2023-05-20T02:56:47.415Z,63.08
2023-05-20T02:59:16.911Z,62.94
2023-05-20T03:01:45.008Z,63.16
2023-05-20T03:04:12.804Z,63.07
2023-05-20T03:06:44.773Z,63.01
2023-05-20T03:09:12.942Z,62.79
2023-05-20T03:11:40.200Z,62.16
2023-05-20T03:14:07.104Z,61.84
2023-05-20T03:16:35.567Z,61.27
2023-05-20T03:19:06.481Z,61.55
2023-05-20T03:21:35.683Z,61.09
2023-05-20T03:24:02.542Z,60.88
2023-05-20T03:26:34.032Z,60.72
2023-05-20T03:29:00.985Z,60.85
2023-05-20T03:31:27.993Z,60.22
2023-05-20T03:33:55.950Z,59.99
2023-05-20T03:36:22.907Z,59.29
2023-05-20T03:38:50.480Z,59.37
2023-05-20T03:41:18.598Z,58.71
2023-05-20T03:43:45.522Z,58.20
2023-05-20T03:46:12.519Z,58.34
2023-05-20T03:48:39.513Z,58.55
2023-05-20T03:51:07.356Z,58.37
2023-05-20T03:53:35.754Z,58.36
2023-05-20T03:56:02.672Z,58.25
2023-05-20T03:58:31.369Z,58.54
2023-05-20T04:00:59.416Z,58.28
2023-05-20T04:03:29.296Z,58.09
2023-05-20T04:06:03.716Z,57.77
2023-05-20T04:08:31.718Z,57.94
2023-05-20T04:10:58.805Z,58.76
2023-05-20T04:13:25.821Z,59.10
2023-05-20T04:15:53.855Z,59.28
2023-05-20T04:18:21.409Z,59.16
2023-05-20T04:20:48.506Z,58.81
2023-05-20T04:23:15.623Z,59.03
2023-05-20T04:25:44.817Z,59.92
2023-05-20T04:28:14.294Z,60.06
2023-05-20T04:30:42.525Z,60.68
2023-05-20T04:33:12.347Z,60.47
2023-05-20T04:35:42.328Z,60.32
2023-05-20T04:38:09.681Z,60.31
2023-05-20T04:40:37.656Z,60.08
2023-05-20T04:43:06.142Z,59.36
2023-05-20T04:45:36.877Z,59.06
2023-05-20T04:48:06.235Z,59.67
2023-05-20T04:50:37.997Z,59.52
2023-05-20T04:53:08.057Z,59.59
2023-05-20T04:55:37.560Z,59.56
2023-05-20T04:58:04.476Z,60.45
2023-05-20T05:00:32.444Z,61.24
2023-05-20T05:03:00.232Z,61.75
2023-05-20T05:05:28.384Z,61.52
2023-05-20T05:07:56.398Z,60.93
2023-05-20T05:10:25.484Z,60.35
2023-05-20T05:12:52.519Z,59.50
2023-05-20T05:15:19.508Z,58.99
2023-05-20T05:17:47.634Z,58.86
2023-05-20T05:20:16.799Z,58.75
2023-05-20T05:22:44.219Z,58.47
2023-05-20T05:25:11.733Z,58.14
2023-05-20T05:27:39.824Z,58.12
2023-05-20T05:30:08.562Z,57.59
2023-05-20T05:32:36.982Z,56.74
2023-05-20T05:35:06.698Z,56.67
2023-05-20T05:37:35.357Z,56.25
2023-05-20T05:40:02.442Z,56.14
2023-05-20T05:42:29.850Z,55.37
2023-05-20T05:44:56.997Z,55.26
2023-05-20T05:47:29.848Z,55.68
2023-05-20T05:49:56.900Z,56.71
2023-05-20T05:52:23.884Z,56.97
2023-05-20T05:54:50.773Z,56.68
2023-05-20T05:57:21.284Z,54.92
2023-05-20T05:59:48.292Z,53.61
2023-05-20T06:02:16.639Z,53.98
2023-05-20T06:04:50.459Z,53.88
2023-05-20T06:07:17.996Z,52.98
2023-05-20T06:09:45.259Z,52.40
2023-05-20T06:12:14.018Z,51.28
2023-05-20T06:14:41.919Z,51.51
2023-05-20T06:17:08.812Z,52.43
2023-05-20T06:19:37.022Z,52.36
2023-05-20T06:22:04.254Z,51.74
2023-05-20T06:24:33.485Z,51.17
2023-05-20T06:27:03.412Z,51.36
2023-05-20T06:29:31.542Z,51.18
2023-05-20T06:31:58.509Z,50.64
2023-05-20T06:34:28.539Z,50.16
2023-05-20T06:36:56.851Z,49.87
2023-05-20T06:39:23.845Z,49.69
2023-05-20T06:41:52.463Z,50.10
2023-05-20T06:44:31.217Z,50.18
2023-05-20T06:47:33.562Z,50.58
2023-05-20T06:50:02.866Z,50.16
2023-05-20T06:52:30.697Z,49.14
2023-05-20T06:54:57.841Z,48.39
2023-05-20T06:57:25.861Z,47.18
2023-05-20T06:59:53.021Z,46.26
2023-05-20T07:02:22.299Z,45.97
2023-05-20T07:04:51.361Z,45.89
2023-05-20T07:07:19.093Z,45.11
2023-05-20T07:09:46.989Z,44.17
2023-05-20T07:12:14.095Z,45.28
2023-05-20T07:14:41.186Z,46.18
2023-05-20T07:17:08.370Z,46.96
2023-05-20T07:19:39.258Z,46.70
2023-05-20T07:22:08.064Z,45.12
2023-05-20T07:24:43.371Z,44.90
2023-05-20T07:27:10.936Z,44.85
2023-05-20T07:29:38.136Z,44.43
2023-05-20T07:32:09.370Z,44.34
2023-05-20T07:34:37.933Z,43.20
2023-05-20T07:37:06.356Z,43.45
2023-05-20T07:39:34.430Z,43.81
2023-05-20T07:42:01.536Z,42.85
2023-05-20T07:44:28.646Z,42.94
2023-05-20T07:46:56.272Z,42.28
2023-05-20T07:49:28.410Z,43.29
2023-05-20T07:51:55.530Z,44.37
2023-05-20T07:54:23.398Z,44.70
2023-05-20T07:56:52.287Z,44.18
2023-05-20T07:59:19.376Z,43.44
2023-05-20T08:01:48.566Z,42.75
2023-05-20T08:04:18.063Z,41.78
2023-05-20T08:06:46.973Z,41.35
2023-05-20T08:09:21.903Z,41.18
2023-05-20T08:11:50.921Z,41.16
2023-05-20T08:14:17.840Z,40.21
2023-05-20T08:16:52.985Z,40.45
2023-05-20T08:19:23.096Z,40.21
2023-05-20T08:21:54.891Z,39.62
2023-05-20T08:24:22.142Z,40.07
2023-05-20T08:26:49.317Z,39.76
2023-05-20T08:29:17.909Z,38.50
2023-05-20T08:31:44.944Z,36.70
2023-05-20T08:34:12.770Z,36.92
2023-05-20T08:36:42.641Z,36.93
2023-05-20T08:39:11.299Z,37.09
2023-05-20T08:41:39.452Z,36.72
2023-05-20T08:44:08.979Z,36.98
2023-05-20T08:46:37.273Z,36.90
2023-05-20T08:49:04.743Z,37.51
2023-05-20T08:51:32.143Z,37.35
2023-05-20T08:54:02.829Z,36.74
2023-05-20T08:56:31.070Z,37.41
2023-05-20T08:58:59.958Z,37.42
2023-05-20T09:01:27.080Z,36.44
2023-05-20T09:03:54.234Z,35.67
2023-05-20T09:06:21.394Z,35.34
2023-05-20T09:09:14.677Z,35.55
2023-05-20T09:11:42.806Z,35.47
2023-05-20T09:14:10.882Z,34.20
2023-05-20T09:16:40.415Z,34.52
2023-05-20T09:19:07.796Z,34.75
2023-05-20T09:21:35.873Z,35.02
2023-05-20T09:24:04.024Z,35.26
2023-05-20T09:26:31.605Z,34.97
2023-05-20T09:30:59.447Z,35.48
2023-05-20T09:33:32.394Z,34.36
2023-05-20T09:36:08.410Z,35.45
2023-05-20T09:38:38.741Z,35.95
2023-05-20T09:41:13.478Z,35.45
2023-05-20T09:43:43.254Z,34.56
2023-05-20T09:46:12.272Z,34.35
2023-05-20T09:48:39.082Z,34.74
2023-05-20T09:51:08.419Z,34.88
2023-05-20T09:53:36.441Z,34.77
2023-05-20T09:56:04.608Z,35.69
2023-05-20T09:58:33.789Z,35.93
2023-05-20T10:01:02.022Z,35.50
2023-05-20T10:03:29.676Z,32.62
2023-05-20T10:06:38.315Z,31.86
2023-05-20T10:09:10.036Z,32.63
2023-05-20T10:12:03.636Z,32.53
2023-05-20T10:14:45.544Z,32.97
2023-05-20T10:17:14.796Z,33.80
2023-05-20T10:19:41.651Z,33.90
2023-05-20T10:22:09.684Z,34.18
2023-05-20T10:24:42.545Z,34.12
2023-05-20T10:27:15.187Z,33.06
2023-05-20T10:29:50.695Z,32.19
2023-05-20T10:32:28.694Z,32.85
2023-05-20T10:35:00.985Z,33.20
2023-05-20T10:37:29.936Z,34.08
2023-05-20T10:40:11.287Z,33.39
2023-05-20T10:42:40.121Z,35.19
2023-05-20T10:45:07.733Z,35.43
2023-05-20T10:47:35.168Z,34.09
2023-05-20T10:50:07.914Z,33.06
2023-05-20T10:52:36.303Z,33.27
2023-05-20T10:55:06.079Z,32.16
2023-05-20T10:57:33.835Z,33.03
2023-05-20T11:00:04.594Z,32.24
2023-05-20T11:02:34.141Z,32.63
2023-05-20T11:05:04.116Z,32.47
2023-05-20T11:07:31.489Z,33.64
2023-05-20T11:09:58.632Z,33.35
2023-05-20T11:12:26.401Z,33.42
2023-05-20T11:14:56.370Z,33.26
2023-05-20T11:17:23.318Z,32.99
2023-05-20T11:19:50.427Z,32.92
2023-05-20T11:22:17.994Z,33.20
2023-05-20T11:24:45.935Z,34.54
2023-05-20T11:27:15.095Z,34.43
2023-05-20T11:29:43.406Z,34.24
2023-05-20T11:32:10.542Z,33.53
2023-05-20T11:34:38.624Z,33.32
2023-05-20T11:37:09.657Z,32.71
2023-05-20T11:39:37.323Z,33.45
2023-05-20T11:42:05.697Z,34.16
2023-05-20T11:44:32.635Z,34.30
2023-05-20T11:47:02.681Z,33.92
2023-05-20T11:49:33.088Z,33.20
2023-05-20T11:52:00.501Z,32.60
2023-05-20T11:54:27.707Z,32.53
2023-05-20T11:56:55.532Z,31.64
2023-05-20T11:59:23.547Z,31.19
2023-05-20T12:01:50.202Z,31.41
2023-05-20T12:04:17.977Z,31.79
2023-05-20T12:06:45.243Z,32.05
2023-05-20T12:09:13.384Z,31.58
2023-05-20T12:11:40.851Z,30.44
2023-05-20T12:14:09.700Z,30.30
2023-05-20T12:16:37.986Z,29.62
2023-05-20T12:19:05.150Z,29.88
2023-05-20T12:21:33.414Z,30.21
2023-05-20T12:24:00.422Z,30.15
2023-05-20T12:26:28.012Z,30.94
2023-05-20T12:28:55.637Z,30.53
2023-05-20T12:31:25.661Z,29.93
2023-05-20T12:33:55.827Z,29.99
2023-05-20T12:36:22.680Z,29.48
2023-05-20T12:38:49.616Z,29.57
2023-05-20T12:41:17.001Z,29.75
2023-05-20T12:43:44.755Z,29.81
2023-05-20T12:46:11.495Z,30.15
2023-05-20T12:48:39.952Z,30.08
2023-05-20T12:51:08.194Z,29.36
2023-05-20T12:53:35.880Z,28.71
2023-05-20T12:56:02.905Z,29.59
2023-05-20T12:58:31.624Z,30.46
2023-05-20T13:00:58.810Z,31.05
2023-05-20T13:03:26.625Z,30.27
2023-05-20T13:05:53.450Z,30.01
2023-05-20T13:08:21.221Z,29.48
2023-05-20T13:10:49.014Z,29.92
2023-05-20T13:13:21.300Z,30.12
2023-05-20T13:15:50.819Z,30.10
2023-05-20T13:18:18.913Z,30.30
2023-05-20T13:20:46.514Z,30.78
2023-05-20T13:23:14.455Z,30.23
2023-05-20T13:25:42.361Z,30.14
2023-05-20T13:28:12.554Z,30.17
2023-05-20T13:30:40.014Z,30.05
2023-05-20T13:33:07.286Z,30.05
2023-05-20T13:35:35.795Z,29.80
2023-05-20T13:38:02.964Z,30.58
2023-05-20T13:40:31.467Z,31.15
2023-05-20T13:42:58.270Z,30.41
2023-05-20T13:45:25.111Z,30.00
2023-05-20T13:47:55.488Z,29.11
2023-05-20T13:50:22.745Z,28.22
2023-05-20T13:52:53.652Z,27.73
2023-05-20T13:55:22.737Z,28.09
2023-05-20T13:57:54.224Z,29.44
2023-05-20T14:00:21.330Z,29.30
2023-05-20T14:02:48.402Z,28.85
2023-05-20T14:05:15.211Z,28.58
2023-05-20T14:07:44.650Z,28.52
2023-05-20T14:10:11.922Z,28.20
2023-05-20T14:12:39.536Z,28.07
2023-05-20T14:15:06.884Z,27.31
2023-05-20T14:17:34.016Z,27.40
2023-05-20T14:20:00.858Z,27.33
2023-05-20T14:22:28.711Z,27.30
2023-05-20T14:24:55.838Z,27.56
2023-05-20T14:27:22.553Z,28.01
2023-05-20T14:29:49.460Z,27.89
2023-05-20T14:32:16.251Z,27.75
2023-05-20T14:34:43.057Z,27.76
2023-05-20T14:37:11.454Z,27.26
2023-05-20T14:39:38.739Z,27.14
2023-05-20T14:42:05.463Z,26.90
2023-05-20T14:44:32.252Z,27.04
2023-05-20T14:46:59.018Z,26.95
2023-05-20T14:49:25.842Z,25.58
2023-05-20T14:51:52.527Z,26.22
2023-05-20T14:54:24.365Z,26.29
2023-05-20T14:56:53.949Z,26.60
2023-05-20T14:59:20.931Z,26.86
2023-05-20T15:01:47.876Z,26.57
2023-05-20T15:04:14.978Z,26.22
2023-05-20T15:06:43.210Z,25.50
2023-05-20T15:09:11.248Z,25.30
2023-05-20T15:11:38.029Z,25.48
2023-05-20T15:14:05.130Z,26.33
2023-05-20T15:16:32.275Z,26.84
2023-05-20T15:18:59.141Z,26.90
2023-05-20T15:21:25.906Z,26.54
2023-05-20T15:23:52.872Z,26.81
2023-05-20T15:26:19.606Z,26.94
2023-05-20T15:28:46.591Z,26.83
2023-05-20T15:31:13.376Z,26.69
2023-05-20T15:33:40.645Z,27.10
2023-05-20T15:36:07.785Z,27.01
2023-05-20T15:38:35.848Z,26.95
2023-05-20T15:41:02.705Z,27.06
2023-05-20T15:43:30.194Z,26.61
2023-05-20T15:45:57.020Z,25.88
2023-05-20T15:48:23.855Z,25.74
2023-05-20T15:50:50.571Z,26.28
2023-05-20T15:53:43.517Z,26.61
2023-05-20T15:56:13.249Z,26.69
2023-05-20T15:58:40.460Z,26.89
2023-05-20T16:01:10.540Z,26.76
2023-05-20T16:03:39.024Z,26.87
2023-05-20T16:06:06.865Z,27.10
2023-05-20T16:08:36.747Z,27.22
2023-05-20T16:11:04.277Z,27.56
2023-05-20T16:13:32.496Z,27.71
2023-05-20T16:15:59.374Z,27.81
2023-05-20T16:18:29.220Z,27.90
2023-05-20T16:20:58.274Z,27.92
2023-05-20T16:23:25.129Z,28.11
2023-05-20T16:25:51.966Z,27.89
2023-05-20T16:28:19.352Z,28.13
2023-05-20T16:30:46.225Z,28.37
2023-05-20T16:33:13.326Z,28.57
2023-05-20T16:35:40.293Z,28.87
2023-05-20T16:38:08.258Z,29.04
2023-05-20T16:40:36.656Z,28.95
2023-05-20T16:43:03.416Z,29.05
2023-05-20T16:45:30.262Z,29.34
2023-05-20T16:47:57.798Z,29.32
2023-05-20T16:50:25.873Z,29.36
2023-05-20T16:52:53.793Z,29.71
2023-05-20T16:55:21.899Z,30.21
2023-05-20T16:57:50.630Z,30.41
2023-05-20T17:00:17.989Z,30.44
2023-05-20T17:02:46.530Z,30.55
2023-05-20T17:05:14.651Z,30.48
2023-05-20T17:07:43.938Z,30.88
2023-05-20T17:10:11.711Z,31.14
2023-05-20T17:12:39.494Z,31.55
2023-05-20T17:15:10.164Z,31.32
2023-05-20T17:17:36.977Z,31.49
2023-05-20T17:20:04.813Z,31.55
2023-05-20T17:22:37.576Z,31.80
2023-05-20T17:25:05.270Z,31.95
2023-05-20T17:27:32.930Z,32.25
2023-05-20T17:30:00.316Z,32.36
2023-05-20T17:32:28.201Z,32.31
2023-05-20T17:34:55.259Z,32.41
2023-05-20T17:37:22.219Z,32.65
2023-05-20T17:39:49.197Z,32.96
2023-05-20T17:42:16.128Z,33.06
2023-05-20T17:44:43.127Z,33.22
2023-05-20T17:47:09.748Z,33.72
2023-05-20T17:49:37.081Z,34.04
2023-05-20T17:52:04.092Z,34.16
2023-05-20T17:54:32.964Z,34.42
2023-05-20T17:56:59.749Z,34.78
2023-05-20T17:59:26.552Z,34.81
2023-05-20T18:01:53.241Z,34.83
2023-05-20T18:04:22.193Z,35.02
2023-05-20T18:06:49.692Z,35.17
2023-05-20T18:09:17.967Z,35.57
2023-05-20T18:11:45.638Z,35.32
2023-05-20T18:14:12.809Z,35.59
2023-05-20T18:16:40.037Z,35.85
2023-05-20T18:19:07.017Z,35.86
2023-05-20T18:21:35.158Z,36.11
2023-05-20T18:24:02.092Z,36.30
2023-05-20T18:26:31.158Z,36.22
2023-05-20T18:28:57.957Z,36.17
2023-05-20T18:31:26.794Z,36.51
2023-05-20T18:33:53.422Z,36.60
2023-05-20T18:36:20.405Z,36.51
2023-05-20T18:38:47.426Z,36.82
2023-05-20T18:41:14.314Z,36.93
2023-05-20T18:43:41.145Z,36.94
2023-05-20T18:46:08.957Z,37.16
2023-05-20T18:48:35.947Z,37.09
2023-05-20T18:51:02.916Z,37.12
2023-05-20T18:53:30.119Z,37.22
2023-05-20T18:56:00.711Z,37.54
2023-05-20T18:58:29.179Z,37.65
2023-05-20T19:00:56.016Z,37.76
2023-05-20T19:03:24.707Z,37.77
2023-05-20T19:05:51.500Z,37.73
2023-05-20T19:08:18.646Z,37.85
2023-05-20T19:10:47.080Z,37.52
2023-05-20T19:13:16.103Z,37.92
2023-05-20T19:15:43.186Z,38.01
2023-05-20T19:18:10.757Z,37.80
2023-05-20T19:20:37.402Z,38.01
2023-05-20T19:23:08.475Z,37.74
2023-05-20T19:25:36.434Z,37.97
2023-05-20T19:28:03.595Z,37.95
2023-05-20T19:30:30.466Z,37.89
2023-05-20T19:32:57.376Z,37.95
2023-05-20T19:35:24.065Z,37.96
2023-05-20T19:37:53.084Z,37.86
2023-05-20T19:40:20.619Z,38.16
2023-05-20T19:42:51.254Z,38.16
2023-05-20T19:45:22.919Z,38.11
2023-05-20T19:47:50.728Z,38.39
2023-05-20T19:50:19.605Z,38.29
2023-05-20T19:52:46.399Z,38.58
2023-05-20T19:55:13.510Z,38.54
2023-05-20T19:57:40.345Z,38.67
2023-05-20T20:00:10.767Z,39.00
2023-05-20T20:02:43.552Z,39.03
2023-05-20T20:05:12.544Z,39.15
2023-05-20T20:07:40.270Z,39.36
2023-05-20T20:10:08.089Z,39.45
2023-05-20T20:12:35.126Z,39.49
2023-05-20T20:15:02.898Z,39.58
2023-05-20T20:17:30.213Z,40.00
2023-05-20T20:19:57.470Z,39.80
2023-05-20T20:22:24.206Z,40.13
2023-05-20T20:25:09.708Z,39.99
2023-05-20T20:27:37.908Z,40.14
2023-05-20T20:30:05.652Z,40.32
2023-05-20T20:32:33.095Z,40.47
2023-05-20T20:35:00.911Z,40.63
2023-05-20T20:37:27.645Z,40.65
2023-05-20T20:39:54.624Z,40.86
2023-05-20T20:42:22.438Z,41.17
2023-05-20T20:44:51.993Z,40.99
2023-05-20T20:47:18.684Z,41.00
2023-05-20T20:49:45.428Z,41.31
2023-05-20T20:52:12.111Z,41.54
2023-05-20T20:54:40.128Z,41.25
2023-05-20T20:57:08.274Z,41.60
2023-05-20T20:59:34.848Z,41.79
2023-05-20T21:02:02.734Z,41.81
2023-05-20T21:04:30.567Z,42.04
2023-05-20T21:07:01.705Z,41.81
2023-05-20T21:09:29.270Z,42.27
2023-05-20T21:11:56.642Z,42.23
2023-05-20T21:14:23.530Z,42.41
2023-05-20T21:16:50.386Z,42.35
2023-05-20T21:19:17.046Z,42.57
2023-05-20T21:21:44.369Z,42.63
2023-05-20T21:24:10.900Z,42.62
2023-05-20T21:26:37.494Z,42.79
2023-05-20T21:29:05.398Z,43.07
2023-05-20T21:31:32.091Z,43.11
2023-05-20T21:33:58.845Z,43.29
2023-05-20T21:36:25.475Z,43.33
2023-05-20T21:38:52.192Z,43.62
2023-05-20T21:41:18.812Z,43.58
2023-05-20T21:43:45.563Z,43.61
2023-05-20T21:48:32.602Z,44.57
2023-05-20T21:50:59.241Z,43.78
2023-05-20T21:53:25.878Z,44.00
2023-05-20T21:55:52.546Z,44.39
2023-05-20T21:58:19.489Z,44.76
2023-05-20T22:00:46.219Z,44.77
2023-05-20T22:03:14.033Z,44.84
2023-05-20T22:05:45.375Z,45.37
2023-05-20T22:08:13.466Z,45.80
2023-05-20T22:10:40.225Z,45.65
2023-05-20T22:13:10.298Z,45.88
2023-05-20T22:15:37.614Z,45.85
2023-05-20T22:18:07.471Z,46.14
2023-05-20T22:20:38.088Z,46.12
2023-05-20T22:23:05.843Z,46.44
2023-05-20T22:25:33.494Z,46.56
2023-05-20T22:28:00.850Z,46.84
2023-05-20T22:30:27.989Z,47.25
2023-05-20T22:33:00.789Z,47.60
2023-05-20T22:35:27.521Z,47.82
2023-05-20T22:37:56.679Z,48.07
2023-05-20T22:40:23.336Z,48.33
2023-05-20T22:42:50.019Z,48.56
2023-05-20T22:45:16.786Z,48.76
2023-05-20T22:47:45.630Z,48.89
2023-05-20T22:50:13.002Z,49.15
2023-05-20T22:52:41.092Z,49.13
2023-05-20T22:55:08.511Z,49.41
2023-05-20T22:57:36.318Z,49.64
2023-05-20T23:00:04.371Z,49.82
2023-05-20T23:02:32.101Z,49.88
2023-05-20T23:04:58.808Z,50.04
2023-05-20T23:07:26.439Z,50.00
2023-05-20T23:09:53.099Z,50.16
2023-05-20T23:12:20.758Z,50.40
2023-05-20T23:14:48.117Z,50.47
2023-05-20T23:17:15.488Z,50.69
2023-05-20T23:19:42.283Z,50.72
2023-05-20T23:22:09.005Z,50.79
2023-05-20T23:24:35.937Z,50.79
2023-05-20T23:27:04.124Z,50.60
2023-05-20T23:29:31.083Z,50.83
2023-05-20T23:31:58.738Z,50.80
2023-05-20T23:34:26.780Z,50.65
2023-05-20T23:36:53.453Z,50.88
2023-05-20T23:39:21.173Z,51.08
2023-05-20T23:41:47.964Z,51.02
2023-05-20T23:44:14.694Z,51.12
2023-05-20T23:46:41.558Z,51.16
2023-05-20T23:49:09.607Z,51.18
2023-05-20T23:51:36.188Z,51.25
2023-05-20T23:54:02.829Z,51.35
2023-05-20T23:56:29.705Z,51.10
2023-05-20T23:58:57.596Z,51.15
